Aviation Digital Data Service (ADDS)

Output produced by METARs form (0344 UTC 23 November 2017)
found at http://www.aviationweather.gov/adds/metars/
 
KMAF 222336Z 2300/2324 22006KT P6SM SCT200 
     FM231200 30005KT P6SM SCT200
       
KMBG 222324Z 2300/2324 31009KT P6SM SCT250 
     FM230200 VRB05KT P6SM SKC 
     FM231400 23009KT P6SM BKN250
       
KMBS 222323Z 2300/2324 23005KT P6SM BKN040 OVC250 
     FM230700 23007KT P6SM OVC100 
     FM231600 23012KT P6SM SCT045 BKN100 OVC250
       
KMCB 222321Z 2300/2324 36006KT P6SM SKC
       
KMCE 222320Z 2300/2324 VRB04KT 5SM HZ SCT250 
     FM230700 VRB03KT 1SM BR SCT250 
     FM231000 00000KT 1/4SM FG VV002 
     FM231900 33008KT 4SM HZ OVC250
       
TAF KMCF 230100Z 2301/2407 04009KT 9999 SCT040 QNH2990INS 
     TEMPO 2301/2302 6000 -SHRA VCTS BKN020CB 
     BECMG 2310/2311 12012KT 4800 -SHRA BKN020 QNH2987INS 
     BECMG 2400/2401 21009KT 9999 NSW FEW020 QNH2981INS TX27/2319Z TN17/2312Z
       
KMCI 222320Z 2300/2324 20006KT P6SM SCT250
       
KMCK 222354Z 2300/2324 26004KT P6SM SCT200 
     FM231900 27008KT P6SM FEW250 
     FM232200 24008KT P6SM FEW250
       
KMCN 230258Z 2303/2324 32003KT P6SM BKN250 
     FM230600 03004KT P6SM SCT040 
     FM230800 06006KT P6SM BKN035 
     FM231000 06007KT P6SM OVC030 
     FM231500 06006KT P6SM BKN035
       
KMCO 230306Z 2303/2406 04007KT P6SM SCT030 OVC180 
     FM230800 04006KT P6SM SCT010 BKN025 
     TEMPO 2309/2312 SCT006 BKN010 
     FM231400 10008KT P6SM VCSH SCT020 BKN040 OVC080 
     FM231800 16009KT 5SM SHRA BKN025 
     TEMPO 2318/2322 2SM +SHRA BKN012 
     FM240000 VRB04KT P6SM VCSH BKN018
       
KMCW 222336Z 2300/2324 18010KT P6SM BKN080 BKN100 
     FM230800 24007KT P6SM SKC 
     FM231500 32007KT P6SM SKC 
     FM232200 22005KT P6SM FEW250
       
KMDT 230329Z 2303/2324 32010G20KT P6SM BKN040 
     FM230700 32008KT P6SM SCT040 
     FM231400 28008KT P6SM SKC
       
KMDW 230300Z 2303/2324 21008KT P6SM SCT070 BKN120 OVC250 
     FM232000 25008KT P6SM SCT040 BKN250
       
KMEI 222320Z 2300/2324 36008KT P6SM SKC
       
KMEM 230259Z 2303/2406 01007KT P6SM SKC 
     FM231400 32004KT P6SM SKC
       
KMER 222320Z 2300/2324 VRB04KT 5SM HZ SCT250 
     FM230700 VRB03KT 1SM BR SCT250 
     FM231000 00000KT 1/4SM FG VV002 
     FM231900 33008KT 4SM HZ OVC250 AMD NOT SKED
       
KMFE 222332Z 2300/2324 33006KT P6SM FEW250
       
KMFR 230003Z 2300/2324 30007KT P6SM SCT040 BKN080 WS010/21030KT 
     FM230300 VRB03KT P6SM SCT040 OVC080 WS010/21025KT 
     FM230800 VRB03KT P6SM SCT020 OVC040 
     FM231700 VRB03KT P6SM -RA SCT020 OVC040
       
TAF KMGE 222200Z 2222/2404 31009KT 9999 SCT250 QNH3001INS 
     BECMG 2308/2309 06006KT 9999 FEW025 QNH3003INS 
     BECMG 2314/2315 08009KT 9999 FEW020 QNH3005INS TX17/2222Z TN05/2311Z
       
KMGM 222334Z 2300/2324 35005KT P6SM BKN250 
     FM231500 35006KT P6SM BKN025
       
KMGW 222332Z 2300/2324 32004KT P6SM OVC035 
     FM230500 VRB04KT P6SM SCT250
       
KMHK 222332Z 2300/2324 21007KT P6SM SCT250 
     FM231400 30005KT P6SM SKC
       
KMHR 222328Z 2300/2324 VRB03KT P6SM BKN200 
     FM230800 VRB02KT 2SM BR VV002 
     TEMPO 2312/2316 1/2SM FG 
     FM231800 VRB04KT P6SM SCT080 BKN150 
     FM232100 VRB04KT P6SM VCSH SCT080 OVC150
       
KMHT 230108Z 2301/2324 32010G19KT P6SM SCT025 BKN040 
     FM230500 32005KT P6SM FEW250
       
KMIA 222324Z 2300/2406 11007KT P6SM VCSH SCT025 BKN070 
     FM230100 VRB03KT P6SM FEW030 SCT250 
     FM231300 16010KT P6SM VCSH SCT030 BKN060 
     FM240000 23005KT P6SM VCSH SCT030 BKN060
       
TAF KMIB 230100Z 2301/2407 31009KT 9999 FEW020 BKN025 620251 QNH2988INS 
     BECMG 2308/2309 21006KT 4800 BR FEW015 QNH2972INS 
     BECMG 2311/2312 VRB06KT 3200 -DZ BR BKN007 OVC020 QNH2970INS 
     BECMG 2315/2316 24012KT 9999 NSW SCT010 OVC200 QNH2956INS 
     BECMG 2321/2322 24012KT 9999 SCT180 WS020/28050KT QNH2939INS 
     BECMG 2404/2405 24010G15KT 9999 SCT250 WS020/27060KT QNH2933INS TX06/2323Z TNM08/2309Z
       
KMIV 222321Z 2300/2324 32008KT P6SM SCT045 
     FM230300 32006KT P6SM SKC 
     FM232000 29006KT P6SM SKC 
     FM232300 VRB03KT P6SM SKC
       
KMKE 230301Z 2303/2406 22007KT P6SM OVC080 
     FM231400 23008KT P6SM SCT060 
     FM240100 VRB04KT P6SM FEW250 
     FM240500 22005KT P6SM FEW250
       
KMKL 222328Z 2300/2324 34006KT P6SM SKC 
     FM230200 00000KT P6SM SKC 
     FM231400 30003KT P6SM SKC 
     FM231800 29005KT P6SM SKC
       
KMKT 222324Z 2300/2324 18009KT P6SM OVC080 
     FM230600 VRB04KT P6SM SCT090 
     FM231100 30005KT P6SM SKC 
     FM231800 20006KT P6SM FEW100
       
KMLB 230224Z 2302/2324 03005KT P6SM VCSH SCT025 BKN035 
     FM231400 12006KT P6SM VCSH SCT025 OVC040 
     FM231800 18009KT 5SM SHRA BKN025 
     TEMPO 2318/2322 2SM +SHRA BKN012
       
KMLI 222320Z 2300/2324 21006KT P6SM SCT100 OVC150 
     FM231400 25007KT P6SM SKC
       
KMLS 222330Z 2300/2324 27011KT P6SM SCT080 BKN200 
     FM231800 26015G25KT P6SM SCT100 BKN200
       
KMLU 222340Z 2300/2324 01008KT P6SM SKC 
     FM230900 VRB03KT P6SM BKN250 
     FM231400 VRB04KT P6SM SCT180 
     FM231700 36005KT P6SM FEW180
       
KMMH 222343Z 2300/2324 12007KT P6SM SCT200 
     FM230300 VRB04KT P6SM SCT200 
     FM231800 22011KT P6SM SCT120 BKN200
       
TAF KMMT 230000Z 2300/2406 01006KT 9999 FEW050 SCT220 QNH2998INS 
     BECMG 2314/2315 05009KT 9999 FEW040 SCT200 QNH3003INS 
     BECMG 2323/2324 05006KT 9999 FEW050 SCT220 QNH3001INS TX18/2321Z TN06/2312Z
       
KMOB 222320Z 2300/2324 36010KT P6SM SCT250
       
KMOT 222326Z 2300/2324 35007KT P6SM SKC 
     TEMPO 2302/2304 SCT020 
     FM230400 27006KT P6SM BKN020 
     FM230600 24005KT 3SM BR OVC008 
     FM230900 20005KT 1SM BR OVC005 
     FM231300 19006KT P6SM SCT015 
     FM231600 23010G19KT P6SM SCT100
       
KMPV 230305Z 2303/2324 33015G25KT P6SM SCT015 OVC040 
     TEMPO 2303/2306 BKN015 
     FM230600 33010KT P6SM OVC040 
     FM231200 VRB04KT P6SM SCT040 
     FM231600 25005KT P6SM SCT120
       
KMQY 222320Z 2300/2324 35006KT P6SM SKC 
     FM230300 35003KT P6SM SKC
       
KMRY 222339Z 2300/2324 31004KT P6SM BKN200 
     FM230400 VRB03KT P6SM BKN180 
     TEMPO 2313/2316 SCT030 BKN150 
     FM231800 31005KT P6SM FEW150
       
KMRB 222333Z 2300/2324 32008KT P6SM FEW040 
     FM230200 31007KT P6SM SKC 
     FM230600 30004KT P6SM SKC 
     FM232000 25005KT P6SM SKC
       
KMSL 222341Z 2300/2324 01007KT P6SM SKC 
     FM230900 02004KT P6SM SCT250 
     FM231500 34004KT P6SM SCT150 SCT250
       
KMSO 230306Z 2303/2324 12003KT 1SM BR FEW090 
     TEMPO 2303/2305 1/2SM FG FEW002 SCT100 
     FM231100 VRB03KT 5SM BR FEW010 BKN040 OVC070 
     FM231500 VRB05KT P6SM BKN040 OVC070 
     FM232000 25012KT P6SM -SHRA SCT030 OVC050
       
KMSN 230300Z 2303/2324 19008KT P6SM OVC070 
     FM231200 21006KT P6SM FEW060 SCT110 
     FM231600 25006KT P6SM SKC 
     FM231900 27006KT P6SM SKC
       
KMSP 230258Z 2303/2406 17005KT P6SM SCT090 
     FM230800 23003KT P6SM SCT060 
     FM231200 29003KT P6SM SKC 
     FM231800 21007KT P6SM FEW100
       
KMSS 222337Z 2300/2324 29009KT P6SM SCT045 
     FM231000 23005KT P6SM SCT120 
     FM231800 22012KT P6SM BKN100
       
KMSY 222321Z 2300/2406 01012KT P6SM FEW100 FEW250 
     FM240000 35008KT P6SM SKC
       
TAF KMTC 230100Z 2301/2407 20006KT 9999 SCT025 QNH3005INS 
     BECMG 2314/2315 21012G18KT 9999 BKN065 OVC090 620654 QNH3000INS 
     BECMG 2322/2323 21009KT 9999 FEW045 BKN060 620603 QNH2996INS TX03/2318Z TNM06/2306Z LAST NO AMDS AFT 2304 NEXT 2309
       
KMTH 230247Z 2303/2324 08006KT P6SM FEW020 
     FM230700 13005KT P6SM SCT020 SCT060 
     FM231700 17010KT P6SM VCSH SCT020 SCT060 BKN150
       
KMTJ 222320Z 2300/2324 33004KT P6SM FEW200
       
KMTN 222333Z 2300/2324 32010G17KT P6SM FEW050 
     FM230400 30007KT P6SM SKC 
     FM230800 VRB03KT P6SM SKC AMD NOT SKED 2302/2312
       
KMTW 222325Z 2300/2324 23007KT P6SM OVC090 
     FM230600 22008KT 6SM -SN SCT025 OVC040 
     TEMPO 2308/2310 6SM -FZRA BR 
     FM231000 22007KT P6SM BKN050 
     FM231400 25008KT P6SM SCT250
       
TAF KMUO 221801Z 2218/2324 11010G15KT 9999 FEW100 BKN200 QNH3027INS 
     BECMG 2220/2221 11009KT 9999 FEW200 QNH3020INS 
     BECMG 2308/2309 11012KT 9999 SCT150 BKN200 QNH3007INS TX18/2221Z TN07/2315Z LAST NO AMDS AFT 2222 NEXT 2710
       
KMWH 230248Z 2303/2324 VRB03KT 1 1/2SM BR OVC002 
     FM230700 19005KT P6SM VCSH BKN005 OVC060 
     FM231500 20012KT P6SM BKN050 OVC100 WS020/21040KT 
     FM231900 23020G30KT P6SM SCT060 SCT100
       
TAF AMD KMXF 221716Z 2217/2318 34009KT 9999 FEW120 BKN250 QNH3002INS 
     BECMG 2223/2224 35009KT 9999 SKC QNH3005INS TX20/2221Z TN02/2312Z LAST NO AMDS AFT 2220 NEXT 2712
       
KMYL 230007Z 2300/2324 00000KT 1/2SM FG VV001 
     FM231700 17012G18KT P6SM OVC050 
     FM232200 19012G18KT P6SM VCSH OVC025
       
KMYR 230027Z 2300/2324 36008KT P6SM SKC 
     FM230200 01005KT P6SM BKN250 
     FM231200 03011KT P6SM BKN250